sensor_id;sensor_type;location;lat;lon;timestamp;pressure;altitude;pressure_sealevel;temperature;humidity
11172;BME280;5642;50.830;12.082;2022-08-19T02:10:43;98731.66;;;23.21;50.22
11172;BME280;5642;50.830;12.082;2022-08-19T02:13:12;98728.66;;;23.34;50.05
11172;BME280;5642;50.830;12.082;2022-08-19T02:15:39;98730.34;;;23.35;49.99
11172;BME280;5642;50.830;12.082;2022-08-19T02:18:05;98734.72;;;23.36;50.43
11172;BME280;5642;50.830;12.082;2022-08-19T02:20:32;98715.75;;;23.29;50.26
11172;BME280;5642;50.830;12.082;2022-08-19T02:22:58;98733.03;;;23.35;50.47
11172;BME280;5642;50.830;12.082;2022-08-19T02:25:24;98721.78;;;23.31;50.48
11172;BME280;5642;50.830;12.082;2022-08-19T02:27:50;98726.56;;;23.37;50.36
11172;BME280;5642;50.830;12.082;2022-08-19T02:30:18;98697.06;;;23.20;50.48
11172;BME280;5642;50.830;12.082;2022-08-19T02:32:44;98729.22;;;23.37;50.60
11172;BME280;5642;50.830;12.082;2022-08-19T02:35:12;98744.25;;;23.38;50.38
11172;BME280;5642;50.830;12.082;2022-08-19T02:37:40;98760.00;;;23.41;50.68
11172;BME280;5642;50.830;12.082;2022-08-19T02:40:26;98763.66;;;23.40;50.39
11172;BME280;5642;50.830;12.082;2022-08-19T02:42:53;98776.59;;;23.45;50.68
11172;BME280;5642;50.830;12.082;2022-08-19T02:45:19;98785.44;;;23.46;50.69
11172;BME280;5642;50.830;12.082;2022-08-19T02:47:46;98792.38;;;23.48;50.82
11172;BME280;5642;50.830;12.082;2022-08-19T02:50:12;98796.44;;;23.52;50.52
11172;BME280;5642;50.830;12.082;2022-08-19T02:52:39;98805.16;;;23.54;50.46
11172;BME280;5642;50.830;12.082;2022-08-19T02:55:05;98824.97;;;23.61;50.57
11172;BME280;5642;50.830;12.082;2022-08-19T02:57:32;98823.72;;;23.65;50.50
11172;BME280;5642;50.830;12.082;2022-08-19T02:59:58;98831.31;;;23.70;50.66
11172;BME280;5642;50.830;12.082;2022-08-19T03:02:24;98817.38;;;23.66;50.41
11172;BME280;5642;50.830;12.082;2022-08-19T03:04:51;98829.72;;;23.77;50.73
11172;BME280;5642;50.830;12.082;2022-08-19T03:07:20;98821.72;;;23.77;50.45
11172;BME280;5642;50.830;12.082;2022-08-19T03:09:46;98827.31;;;23.84;50.44
11172;BME280;5642;50.830;12.082;2022-08-19T04:13:33;98856.72;;;23.84;50.97
11172;BME280;5642;50.830;12.082;2022-08-19T04:16:05;98839.56;;;23.86;51.34
11172;BME280;5642;50.830;12.082;2022-08-19T04:18:33;98831.69;;;23.85;51.22
11172;BME280;5642;50.830;12.082;2022-08-19T04:21:00;98839.38;;;23.97;51.06
11172;BME280;5642;50.830;12.082;2022-08-19T04:23:27;98835.72;;;23.98;51.12
11172;BME280;5642;50.830;12.082;2022-08-19T04:25:56;98827.97;;;23.95;50.94
11172;BME280;5642;50.830;12.082;2022-08-19T04:28:23;98840.22;;;23.98;51.28
11172;BME280;5642;50.830;12.082;2022-08-19T04:30:52;98835.56;;;24.00;51.27
11172;BME280;5642;50.830;12.082;2022-08-19T04:33:24;98829.97;;;23.93;51.42
11172;BME280;5642;50.830;12.082;2022-08-19T04:35:52;98842.88;;;23.98;51.22
11172;BME280;5642;50.830;12.082;2022-08-19T04:38:20;98830.81;;;23.94;51.49
11172;BME280;5642;50.830;12.082;2022-08-19T04:40:50;98808.59;;;23.84;51.38
11172;BME280;5642;50.830;12.082;2022-08-19T04:43:38;98842.19;;;23.96;51.20
11172;BME280;5642;50.830;12.082;2022-08-19T04:46:07;98835.16;;;23.95;51.53
11172;BME280;5642;50.830;12.082;2022-08-19T06:49:06;98958.78;;;24.45;52.12
11172;BME280;5642;50.830;12.082;2022-08-19T06:51:45;98916.34;;;24.23;51.90
11172;BME280;5642;50.830;12.082;2022-08-19T06:54:15;98959.34;;;24.48;52.00
11172;BME280;5642;50.830;12.082;2022-08-19T06:56:42;98962.16;;;24.56;52.18
11172;BME280;5642;50.830;12.082;2022-08-19T06:59:18;98942.44;;;24.48;52.07
11172;BME280;5642;50.830;12.082;2022-08-19T07:01:51;98923.63;;;24.30;52.03
11172;BME280;5642;50.830;12.082;2022-08-19T07:04:20;98932.94;;;24.36;51.89
11172;BME280;5642;50.830;12.082;2022-08-19T07:06:47;98941.88;;;24.44;51.99
11172;BME280;5642;50.830;12.082;2022-08-19T07:09:16;98976.44;;;24.75;52.07
11172;BME280;5642;50.830;12.082;2022-08-19T07:11:45;98969.69;;;24.71;52.30
11172;BME280;5642;50.830;12.082;2022-08-19T07:14:11;98973.03;;;24.73;52.23
11172;BME280;5642;50.830;12.082;2022-08-19T07:16:44;98940.88;;;24.55;52.13
11172;BME280;5642;50.830;12.082;2022-08-19T07:19:12;98935.25;;;24.48;52.25
11172;BME280;5642;50.830;12.082;2022-08-19T07:21:38;98925.56;;;24.38;52.38
11172;BME280;5642;50.830;12.082;2022-08-19T07:24:05;98959.31;;;24.58;52.70
11172;BME280;5642;50.830;12.082;2022-08-19T07:26:43;98926.28;;;24.40;52.61
11172;BME280;5642;50.830;12.082;2022-08-19T07:29:30;98950.94;;;24.43;52.45
11172;BME280;5642;50.830;12.082;2022-08-19T07:31:57;98956.81;;;24.47;52.69
11172;BME280;5642;50.830;12.082;2022-08-19T07:34:25;98968.63;;;24.54;52.82
11172;BME280;5642;50.830;12.082;2022-08-19T07:36:53;98990.16;;;24.62;52.46
11172;BME280;5642;50.830;12.082;2022-08-19T07:39:25;98992.28;;;24.58;52.57
11172;BME280;5642;50.830;12.082;2022-08-19T07:41:54;98996.50;;;24.61;52.43
11172;BME280;5642;50.830;12.082;2022-08-19T07:44:21;98999.50;;;24.58;52.51
11172;BME280;5642;50.830;12.082;2022-08-19T07:46:54;98976.69;;;24.44;52.93
11172;BME280;5642;50.830;12.082;2022-08-19T08:51:48;99018.25;;;24.58;53.21
11172;BME280;5642;50.830;12.082;2022-08-19T08:54:20;99028.31;;;24.74;53.23
11172;BME280;5642;50.830;12.082;2022-08-19T08:56:51;99016.22;;;24.70;53.10
11172;BME280;5642;50.830;12.082;2022-08-19T08:59:24;99047.16;;;24.82;52.78
11172;BME280;5642;50.830;12.082;2022-08-19T09:01:55;99013.69;;;24.58;52.84
11172;BME280;5642;50.830;12.082;2022-08-19T09:04:21;99056.91;;;24.83;53.05
11172;BME280;5642;50.830;12.082;2022-08-19T09:07:02;99044.34;;;24.83;53.25
11172;BME280;5642;50.830;12.082;2022-08-19T09:09:45;99032.19;;;24.89;52.76
11172;BME280;5642;50.830;12.082;2022-08-19T09:15:01;99012.47;;;24.90;53.06
11172;BME280;5642;50.830;12.082;2022-08-19T09:17:31;98994.59;;;24.81;52.78
11172;BME280;5642;50.830;12.082;2022-08-19T09:20:06;98971.53;;;24.70;52.82
11172;BME280;5642;50.830;12.082;2022-08-19T09:22:35;98969.97;;;24.68;52.86
11172;BME280;5642;50.830;12.082;2022-08-19T09:25:02;99010.91;;;24.87;53.21
11172;BME280;5642;50.830;12.082;2022-08-19T09:27:30;99026.31;;;24.85;53.17
11172;BME280;5642;50.830;12.082;2022-08-19T09:29:58;99039.97;;;24.92;53.19
11172;BME280;5642;50.830;12.082;2022-08-19T09:32:24;99036.47;;;24.91;52.86
11172;BME280;5642;50.830;12.082;2022-08-19T09:34:51;99035.72;;;24.89;52.85
11172;BME280;5642;50.830;12.082;2022-08-19T09:37:22;99041.94;;;24.90;52.97
11172;BME280;5642;50.830;12.082;2022-08-19T09:39:49;99052.91;;;24.87;52.89
11172;BME280;5642;50.830;12.082;2022-08-19T09:42:21;99050.69;;;24.82;53.21
11172;BME280;5642;50.830;12.082;2022-08-19T09:44:51;98996.13;;;24.46;53.10
11172;BME280;5642;50.830;12.082;2022-08-19T09:47:19;99041.69;;;24.74;52.94
11172;BME280;5642;50.830;12.082;2022-08-19T09:49:45;99034.25;;;24.68;53.31
11172;BME280;5642;50.830;12.082;2022-08-19T09:52:15;99040.72;;;24.75;53.26
11172;BME280;5642;50.830;12.082;2022-08-19T09:54:42;99041.94;;;24.80;53.21
11172;BME280;5642;50.830;12.082;2022-08-19T09:57:09;99028.47;;;24.72;53.31
11172;BME280;5642;50.830;12.082;2022-08-19T09:59:38;99039.00;;;24.83;52.76
11172;BME280;5642;50.830;12.082;2022-08-19T10:02:04;99034.75;;;24.81;53.22
11172;BME280;5642;50.830;12.082;2022-08-19T10:04:31;99039.44;;;24.79;53.06
11172;BME280;5642;50.830;12.082;2022-08-19T10:07:15;99047.75;;;24.76;53.21
11172;BME280;5642;50.830;12.082;2022-08-19T10:09:42;99057.09;;;24.72;53.02
11172;BME280;5642;50.830;12.082;2022-08-19T10:12:08;99067.94;;;24.70;52.86
11172;BME280;5642;50.830;12.082;2022-08-19T10:14:35;99066.38;;;24.68;52.98
11172;BME280;5642;50.830;12.082;2022-08-19T10:17:02;99072.72;;;24.67;53.16
11172;BME280;5642;50.830;12.082;2022-08-19T10:19:28;99053.31;;;24.55;52.87
11172;BME280;5642;50.830;12.082;2022-08-19T10:22:06;99045.88;;;24.49;53.30
11172;BME280;5642;50.830;12.082;2022-08-19T10:24:34;99077.97;;;24.58;53.30
11172;BME280;5642;50.830;12.082;2022-08-19T10:27:01;99057.16;;;24.43;53.28
11172;BME280;5642;50.830;12.082;2022-08-19T10:29:29;99017.59;;;24.17;53.13
11172;BME280;5642;50.830;12.082;2022-08-19T10:32:03;99070.13;;;24.47;53.07
11172;BME280;5642;50.830;12.082;2022-08-19T10:34:37;99072.94;;;24.46;53.18
11172;BME280;5642;50.830;12.082;2022-08-19T10:37:04;99083.78;;;24.44;53.02
11172;BME280;5642;50.830;12.082;2022-08-19T10:39:33;99081.09;;;24.44;53.32
11172;BME280;5642;50.830;12.082;2022-08-19T10:42:04;99069.84;;;24.41;53.35
11172;BME280;5642;50.830;12.082;2022-08-19T10:44:32;99086.88;;;24.49;53.54
11172;BME280;5642;50.830;12.082;2022-08-19T10:47:01;99083.75;;;24.54;53.20
11172;BME280;5642;50.830;12.082;2022-08-19T10:49:27;99074.88;;;24.53;53.13
11172;BME280;5642;50.830;12.082;2022-08-19T10:51:55;99090.91;;;24.73;53.04
11172;BME280;5642;50.830;12.082;2022-08-19T10:54:40;99101.06;;;24.79;52.90
11172;BME280;5642;50.830;12.082;2022-08-19T10:57:25;99103.81;;;24.87;52.90
11172;BME280;5642;50.830;12.082;2022-08-19T10:59:57;99093.56;;;24.92;52.94
11172;BME280;5642;50.830;12.082;2022-08-19T11:02:23;99076.09;;;24.78;52.77
11172;BME280;5642;50.830;12.082;2022-08-19T11:04:50;99057.50;;;24.67;53.07
11172;BME280;5642;50.830;12.082;2022-08-19T11:07:17;99096.09;;;24.93;53.12
11172;BME280;5642;50.830;12.082;2022-08-19T11:09:43;99049.31;;;24.78;52.86
11172;BME280;5642;50.830;12.082;2022-08-19T11:12:12;99083.03;;;25.08;52.77
11172;BME280;5642;50.830;12.082;2022-08-19T11:14:38;99040.97;;;24.91;53.10
11172;BME280;5642;50.830;12.082;2022-08-19T11:17:05;99051.72;;;25.09;52.80
11172;BME280;5642;50.830;12.082;2022-08-19T11:19:32;99099.09;;;25.45;53.02
11172;BME280;5642;50.830;12.082;2022-08-19T11:21:59;99059.84;;;25.26;52.84
11172;BME280;5642;50.830;12.082;2022-08-19T11:24:29;99046.81;;;25.31;52.63
11172;BME280;5642;50.830;12.082;2022-08-19T11:27:03;99094.09;;;25.60;52.84
11172;BME280;5642;50.830;12.082;2022-08-19T11:29:33;99093.94;;;25.61;52.55
11172;BME280;5642;50.830;12.082;2022-08-19T11:32:07;99092.63;;;25.65;52.41
11172;BME280;5642;50.830;12.082;2022-08-19T11:34:35;99087.03;;;25.59;52.75
11172;BME280;5642;50.830;12.082;2022-08-19T11:37:03;99094.94;;;25.60;52.71
11172;BME280;5642;50.830;12.082;2022-08-19T11:39:30;99079.41;;;25.54;52.36
11172;BME280;5642;50.830;12.082;2022-08-19T11:42:05;99082.56;;;25.50;52.25
11172;BME280;5642;50.830;12.082;2022-08-19T11:44:54;99086.28;;;25.39;52.45
11172;BME280;5642;50.830;12.082;2022-08-19T11:47:29;99086.97;;;25.41;52.66
11172;BME280;5642;50.830;12.082;2022-08-19T11:49:59;99092.59;;;25.48;52.44
11172;BME280;5642;50.830;12.082;2022-08-19T11:52:25;99088.31;;;25.55;52.63
11172;BME280;5642;50.830;12.082;2022-08-19T11:54:52;99076.72;;;25.64;52.71
11172;BME280;5642;50.830;12.082;2022-08-19T11:57:18;99043.56;;;25.55;52.34
11172;BME280;5642;50.830;12.082;2022-08-19T11:59:50;99070.28;;;25.92;52.15
11172;BME280;5642;50.830;12.082;2022-08-19T12:02:19;99079.00;;;26.12;52.28
11172;BME280;5642;50.830;12.082;2022-08-19T12:04:45;99077.66;;;26.26;52.25
11172;BME280;5642;50.830;12.082;2022-08-19T12:07:11;99072.63;;;26.31;52.07
11172;BME280;5642;50.830;12.082;2022-08-19T12:09:39;99063.75;;;26.30;52.09
11172;BME280;5642;50.830;12.082;2022-08-19T12:12:05;99077.44;;;26.45;51.86
11172;BME280;5642;50.830;12.082;2022-08-19T12:14:31;99077.84;;;26.50;51.88
11172;BME280;5642;50.830;12.082;2022-08-19T12:16:58;99076.66;;;26.52;51.93
11172;BME280;5642;50.830;12.082;2022-08-19T12:19:24;99055.13;;;26.44;51.80
11172;BME280;5642;50.830;12.082;2022-08-19T12:21:51;99070.66;;;26.59;51.85
11172;BME280;5642;50.830;12.082;2022-08-19T12:24:23;99058.72;;;26.53;51.71
11172;BME280;5642;50.830;12.082;2022-08-19T12:26:50;99069.16;;;26.56;51.92
11172;BME280;5642;50.830;12.082;2022-08-19T12:29:16;99066.25;;;26.49;51.93
11172;BME280;5642;50.830;12.082;2022-08-19T12:31:43;99077.84;;;26.50;51.60
11172;BME280;5642;50.830;12.082;2022-08-19T12:34:09;99057.06;;;26.34;51.75
11172;BME280;5642;50.830;12.082;2022-08-19T12:36:35;99058.97;;;26.24;51.78
11172;BME280;5642;50.830;12.082;2022-08-19T12:39:02;99087.75;;;26.32;51.77
11172;BME280;5642;50.830;12.082;2022-08-19T12:41:29;99086.28;;;26.20;51.64
11172;BME280;5642;50.830;12.082;2022-08-19T12:43:55;99091.97;;;26.17;51.91
11172;BME280;5642;50.830;12.082;2022-08-19T12:46:21;99083.38;;;26.13;51.82
11172;BME280;5642;50.830;12.082;2022-08-19T12:48:47;99086.50;;;26.08;51.89
11172;BME280;5642;50.830;12.082;2022-08-19T12:51:16;99093.50;;;26.19;51.89
11172;BME280;5642;50.830;12.082;2022-08-19T13:52:23;99092.09;;;25.80;51.60
11172;BME280;5642;50.830;12.082;2022-08-19T13:54:51;99085.78;;;25.98;51.42
11172;BME280;5642;50.830;12.082;2022-08-19T13:57:17;99085.00;;;26.06;51.61
11172;BME280;5642;50.830;12.082;2022-08-19T13:59:43;99107.19;;;26.26;51.50
11172;BME280;5642;50.830;12.082;2022-08-19T14:02:09;99098.81;;;26.29;51.45
11172;BME280;5642;50.830;12.082;2022-08-19T14:04:36;99113.00;;;26.39;51.08
11172;BME280;5642;50.830;12.082;2022-08-19T14:07:03;99106.91;;;26.37;51.03
11172;BME280;5642;50.830;12.082;2022-08-19T14:09:30;99114.59;;;26.49;50.86
11172;BME280;5642;50.830;12.082;2022-08-19T14:11:57;99117.59;;;26.46;51.09
11172;BME280;5642;50.830;12.082;2022-08-19T14:14:23;99107.00;;;26.45;50.92
11172;BME280;5642;50.830;12.082;2022-08-19T14:16:49;99078.56;;;26.34;50.90
11172;BME280;5642;50.830;12.082;2022-08-19T14:19:16;99091.22;;;26.42;50.94
11172;BME280;5642;50.830;12.082;2022-08-19T14:21:42;99091.88;;;26.44;50.67
11172;BME280;5642;50.830;12.082;2022-08-19T14:24:08;99099.53;;;26.57;50.88
11172;BME280;5642;50.830;12.082;2022-08-19T14:26:34;99087.75;;;26.49;50.55
11172;BME280;5642;50.830;12.082;2022-08-19T14:29:00;99096.53;;;26.60;50.86
11172;BME280;5642;50.830;12.082;2022-08-19T14:31:26;99101.19;;;26.58;50.53
11172;BME280;5642;50.830;12.082;2022-08-19T14:33:53;99106.13;;;26.62;50.44
11172;BME280;5642;50.830;12.082;2022-08-19T14:36:19;99102.88;;;26.59;50.56
11172;BME280;5642;50.830;12.082;2022-08-19T14:38:46;99092.78;;;26.52;50.51
11172;BME280;5642;50.830;12.082;2022-08-19T14:41:20;99105.06;;;26.55;50.50
11172;BME280;5642;50.830;12.082;2022-08-19T14:43:48;99118.16;;;26.58;50.60
11172;BME280;5642;50.830;12.082;2022-08-19T14:46:18;99106.75;;;26.56;50.35
11172;BME280;5642;50.830;12.082;2022-08-19T14:48:49;99103.38;;;26.54;50.28
11172;BME280;5642;50.830;12.082;2022-08-19T14:51:15;99082.38;;;26.49;50.56
11172;BME280;5642;50.830;12.082;2022-08-19T15:52:26;99095.81;;;25.79;50.26
11172;BME280;5642;50.830;12.082;2022-08-19T15:54:52;99078.94;;;25.68;50.51
11172;BME280;5642;50.830;12.082;2022-08-19T15:57:18;99051.22;;;25.50;50.29
11172;BME280;5642;50.830;12.082;2022-08-19T15:59:47;99098.31;;;25.80;50.22
11172;BME280;5642;50.830;12.082;2022-08-19T16:02:33;99081.16;;;25.73;50.19
11172;BME280;5642;50.830;12.082;2022-08-19T16:05:21;99074.78;;;25.74;50.33
11172;BME280;5642;50.830;12.082;2022-08-19T16:08:06;99056.38;;;25.61;50.09
11172;BME280;5642;50.830;12.082;2022-08-19T16:10:36;99076.47;;;25.75;49.93
11172;BME280;5642;50.830;12.082;2022-08-19T16:13:04;99061.28;;;25.66;50.00
11172;BME280;5642;50.830;12.082;2022-08-19T16:15:33;99077.25;;;25.67;50.10
11172;BME280;5642;50.830;12.082;2022-08-19T16:18:00;99071.34;;;25.64;50.17
11172;BME280;5642;50.830;12.082;2022-08-19T16:20:30;99049.34;;;25.51;50.49
11172;BME280;5642;50.830;12.082;2022-08-19T16:22:57;99062.63;;;25.52;50.18
11172;BME280;5642;50.830;12.082;2022-08-19T16:25:24;99085.75;;;25.63;49.83
11172;BME280;5642;50.830;12.082;2022-08-19T16:27:54;99083.22;;;25.61;49.92
11172;BME280;5642;50.830;12.082;2022-08-19T16:30:20;99088.16;;;25.56;49.95
11172;BME280;5642;50.830;12.082;2022-08-19T16:32:46;99092.28;;;25.51;50.37
11172;BME280;5642;50.830;12.082;2022-08-19T16:35:13;99092.28;;;25.51;50.04
11172;BME280;5642;50.830;12.082;2022-08-19T16:37:39;99087.94;;;25.50;50.10
11172;BME280;5642;50.830;12.082;2022-08-19T16:40:08;99087.75;;;25.51;50.15
11172;BME280;5642;50.830;12.082;2022-08-19T16:42:34;99079.03;;;25.49;50.04
11172;BME280;5642;50.830;12.082;2022-08-19T16:45:01;99087.47;;;25.54;49.96
11172;BME280;5642;50.830;12.082;2022-08-19T16:47:29;99061.31;;;25.39;49.69
11172;BME280;5642;50.830;12.082;2022-08-19T16:49:55;99078.47;;;25.46;49.79
11172;BME280;5642;50.830;12.082;2022-08-19T16:52:21;99099.19;;;25.53;49.86
11172;BME280;5642;50.830;12.082;2022-08-19T16:54:54;99099.50;;;25.50;49.66
11172;BME280;5642;50.830;12.082;2022-08-19T16:57:20;99096.81;;;25.50;49.62
11172;BME280;5642;50.830;12.082;2022-08-19T16:59:48;99080.38;;;25.35;49.44
11172;BME280;5642;50.830;12.082;2022-08-19T17:02:17;99095.03;;;25.41;49.41
11172;BME280;5642;50.830;12.082;2022-08-19T17:04:44;99100.66;;;25.38;49.56
11172;BME280;5642;50.830;12.082;2022-08-19T17:07:10;99055.97;;;25.11;49.68
11172;BME280;5642;50.830;12.082;2022-08-19T17:09:37;99090.69;;;25.30;49.48
11172;BME280;5642;50.830;12.082;2022-08-19T17:12:03;99091.84;;;25.28;49.59
11172;BME280;5642;50.830;12.082;2022-08-19T17:14:30;99086.78;;;25.25;49.48
11172;BME280;5642;50.830;12.082;2022-08-19T17:16:56;99053.88;;;25.05;49.42
11172;BME280;5642;50.830;12.082;2022-08-19T17:19:22;99052.31;;;25.03;49.59
11172;BME280;5642;50.830;12.082;2022-08-19T17:21:49;99086.38;;;25.20;49.41
11172;BME280;5642;50.830;12.082;2022-08-19T17:24:15;99089.22;;;25.18;49.62
11172;BME280;5642;50.830;12.082;2022-08-19T17:26:42;99067.41;;;25.04;49.79
11172;BME280;5642;50.830;12.082;2022-08-19T17:29:08;99084.72;;;25.09;49.45
11172;BME280;5642;50.830;12.082;2022-08-19T17:31:35;99089.56;;;25.06;49.52
11172;BME280;5642;50.830;12.082;2022-08-19T17:34:01;99089.16;;;25.01;49.72
11172;BME280;5642;50.830;12.082;2022-08-19T17:36:30;99092.97;;;24.98;49.28
11172;BME280;5642;50.830;12.082;2022-08-19T17:38:58;99078.72;;;24.88;49.56
11172;BME280;5642;50.830;12.082;2022-08-19T17:41:27;99086.75;;;24.88;49.35
11172;BME280;5642;50.830;12.082;2022-08-19T17:43:53;99087.66;;;24.79;49.45
11172;BME280;5642;50.830;12.082;2022-08-19T17:46:20;99092.84;;;24.80;49.49
11172;BME280;5642;50.830;12.082;2022-08-19T17:48:48;99048.97;;;24.54;49.52
11172;BME280;5642;50.830;12.082;2022-08-19T17:51:22;99061.75;;;24.60;49.71
11172;BME280;5642;50.830;12.082;2022-08-19T17:53:51;99079.50;;;24.71;49.91
11172;BME280;5642;50.830;12.082;2022-08-19T17:56:18;99033.50;;;24.38;49.95
11172;BME280;5642;50.830;12.082;2022-08-19T17:58:48;99053.50;;;24.44;49.81
11172;BME280;5642;50.830;12.082;2022-08-19T18:01:16;99033.38;;;24.30;50.01
11172;BME280;5642;50.830;12.082;2022-08-19T18:03:42;99100.22;;;24.59;49.55
11172;BME280;5642;50.830;12.082;2022-08-19T18:06:12;99039.00;;;24.17;50.04
11172;BME280;5642;50.830;12.082;2022-08-19T18:08:43;99081.53;;;24.40;49.94
11172;BME280;5642;50.830;12.082;2022-08-19T18:11:11;99094.22;;;24.47;49.76
11172;BME280;5642;50.830;12.082;2022-08-19T18:13:41;99014.94;;;23.98;49.82
11172;BME280;5642;50.830;12.082;2022-08-19T18:16:09;99077.22;;;24.29;49.97
11172;BME280;5642;50.830;12.082;2022-08-19T18:18:40;99099.28;;;24.41;49.92
11172;BME280;5642;50.830;12.082;2022-08-19T18:21:07;99099.56;;;24.38;49.92
11172;BME280;5642;50.830;12.082;2022-08-19T18:23:35;99103.66;;;24.32;49.88
11172;BME280;5642;50.830;12.082;2022-08-19T18:26:02;99096.47;;;24.23;49.94
11172;BME280;5642;50.830;12.082;2022-08-19T18:28:29;99106.66;;;24.29;49.86
11172;BME280;5642;50.830;12.082;2022-08-19T18:30:55;99111.41;;;24.26;50.19
11172;BME280;5642;50.830;12.082;2022-08-19T18:33:22;99102.81;;;24.12;50.17
11172;BME280;5642;50.830;12.082;2022-08-19T18:35:50;99120.56;;;24.13;50.07
11172;BME280;5642;50.830;12.082;2022-08-19T18:38:20;99131.53;;;24.10;50.18
11172;BME280;5642;50.830;12.082;2022-08-19T18:41:06;99135.63;;;24.05;50.37
11172;BME280;5642;50.830;12.082;2022-08-19T18:43:50;99132.53;;;24.00;50.37
11172;BME280;5642;50.830;12.082;2022-08-19T18:46:35;99125.91;;;23.94;50.26
11172;BME280;5642;50.830;12.082;2022-08-19T18:49:23;99124.63;;;23.89;50.28
11172;BME280;5642;50.830;12.082;2022-08-19T18:51:50;99124.06;;;23.85;50.37
11172;BME280;5642;50.830;12.082;2022-08-19T20:54:20;99188.81;;;23.18;51.78
11172;BME280;5642;50.830;12.082;2022-08-19T20:56:46;99193.78;;;23.23;51.76
11172;BME280;5642;50.830;12.082;2022-08-19T20:59:12;99202.50;;;23.25;51.60
11172;BME280;5642;50.830;12.082;2022-08-19T21:01:38;99200.41;;;23.28;51.64
11172;BME280;5642;50.830;12.082;2022-08-19T21:04:04;99205.63;;;23.30;51.61
11172;BME280;5642;50.830;12.082;2022-08-19T21:06:30;99208.31;;;23.30;51.80
11172;BME280;5642;50.830;12.082;2022-08-19T21:08:56;99215.19;;;23.32;51.50
11172;BME280;5642;50.830;12.082;2022-08-19T21:11:22;99207.16;;;23.32;51.56
11172;BME280;5642;50.830;12.082;2022-08-19T21:13:49;99203.94;;;23.29;51.42
11172;BME280;5642;50.830;12.082;2022-08-19T21:16:15;99208.31;;;23.30;51.51
11172;BME280;5642;50.830;12.082;2022-08-19T21:18:41;99213.78;;;23.28;51.69
11172;BME280;5642;50.830;12.082;2022-08-19T21:21:07;99214.88;;;23.26;51.48
11172;BME280;5642;50.830;12.082;2022-08-19T21:23:33;99214.03;;;23.25;51.66
11172;BME280;5642;50.830;12.082;2022-08-19T21:26:00;99211.34;;;23.25;51.67
11172;BME280;5642;50.830;12.082;2022-08-19T21:28:27;99215.00;;;23.24;51.71
11172;BME280;5642;50.830;12.082;2022-08-19T21:30:57;99217.84;;;23.23;51.62
11172;BME280;5642;50.830;12.082;2022-08-19T21:33:24;99217.97;;;23.21;51.78
11172;BME280;5642;50.830;12.082;2022-08-19T21:35:50;99215.28;;;23.21;51.72
11172;BME280;5642;50.830;12.082;2022-08-19T21:38:18;99208.06;;;23.12;51.76
11172;BME280;5642;50.830;12.082;2022-08-19T21:40:44;99211.88;;;23.19;51.82
11172;BME280;5642;50.830;12.082;2022-08-19T21:43:10;99208.50;;;23.17;51.91
11172;BME280;5642;50.830;12.082;2022-08-19T21:45:36;99211.75;;;23.21;51.84
11172;BME280;5642;50.830;12.082;2022-08-19T21:48:03;99205.69;;;23.19;51.93
11172;BME280;5642;50.830;12.082;2022-08-19T21:50:29;99205.44;;;23.22;51.92
11172;BME280;5642;50.830;12.082;2022-08-19T21:52:58;99197.97;;;23.16;51.81
11172;BME280;5642;50.830;12.082;2022-08-19T21:55:29;99184.53;;;23.06;51.91
11172;BME280;5642;50.830;12.082;2022-08-19T21:57:55;99187.78;;;23.10;51.95
11172;BME280;5642;50.830;12.082;2022-08-19T22:00:26;99212.88;;;23.18;52.04
11172;BME280;5642;50.830;12.082;2022-08-19T22:02:54;99206.78;;;23.16;51.88
11172;BME280;5642;50.830;12.082;2022-08-19T22:05:21;99196.28;;;23.15;52.07
11172;BME280;5642;50.830;12.082;2022-08-19T22:07:52;99207.22;;;23.12;51.97
11172;BME280;5642;50.830;12.082;2022-08-19T22:10:20;99202.41;;;23.06;52.15
11172;BME280;5642;50.830;12.082;2022-08-19T22:12:48;99183.19;;;22.91;52.11
11172;BME280;5642;50.830;12.082;2022-08-19T22:15:17;99193.47;;;22.95;52.27
11172;BME280;5642;50.830;12.082;2022-08-19T22:17:45;99184.69;;;22.84;52.33
11172;BME280;5642;50.830;12.082;2022-08-19T22:20:14;99195.13;;;22.87;52.40
11172;BME280;5642;50.830;12.082;2022-08-19T22:22:53;99191.84;;;22.83;52.23
11172;BME280;5642;50.830;12.082;2022-08-19T22:25:30;99195.78;;;22.79;52.40
11172;BME280;5642;50.830;12.082;2022-08-19T22:27:57;99195.78;;;22.79;52.51
11172;BME280;5642;50.830;12.082;2022-08-19T22:30:24;99208.16;;;22.80;52.51
11172;BME280;5642;50.830;12.082;2022-08-19T22:32:55;99195.06;;;22.77;52.51
11172;BME280;5642;50.830;12.082;2022-08-19T22:35:24;99198.69;;;22.76;52.34
11172;BME280;5642;50.830;12.082;2022-08-19T22:37:53;99201.38;;;22.76;52.49
11172;BME280;5642;50.830;12.082;2022-08-19T22:40:19;99199.53;;;22.77;52.54
11172;BME280;5642;50.830;12.082;2022-08-19T22:42:45;99204.88;;;22.77;52.49
11172;BME280;5642;50.830;12.082;2022-08-19T22:45:15;99205.59;;;22.79;52.61
11172;BME280;5642;50.830;12.082;2022-08-19T22:47:42;99209.38;;;22.76;52.55
11172;BME280;5642;50.830;12.082;2022-08-19T22:50:08;99217.03;;;22.70;52.51
11172;BME280;5642;50.830;12.082;2022-08-19T22:52:35;99220.66;;;22.69;52.39
11172;BME280;5642;50.830;12.082;2022-08-19T23:54:01;99228.03;;;22.12;52.91
11172;BME280;5642;50.830;12.082;2022-08-19T23:56:27;99226.34;;;22.11;53.15
11172;BME280;5642;50.830;12.082;2022-08-19T23:58:53;99207.94;;;22.08;53.16
